createdAt,value
2022-07-27T00:02:55.525Z,72.00
2022-07-27T00:07:58.478Z,72.10
2022-07-27T00:13:01.752Z,72.10
2022-07-27T00:18:04.628Z,73.20
2022-07-27T00:23:07.605Z,74.40
2022-07-27T00:28:10.403Z,75.40
2022-07-27T00:33:17.215Z,76.30
2022-07-27T00:38:20.462Z,77.40
2022-07-27T00:43:23.230Z,78.60
2022-07-27T00:48:26.529Z,80.00
2022-07-27T00:53:30.283Z,80.30
2022-07-27T00:58:33.998Z,80.90
2022-07-27T01:03:36.919Z,81.80
2022-07-27T01:08:42.719Z,82.70
2022-07-27T01:13:45.687Z,83.60
2022-07-27T01:18:48.487Z,83.90
2022-07-27T01:23:51.303Z,84.30
2022-07-27T01:28:59.198Z,85.00
2022-07-27T01:34:03.662Z,85.70
2022-07-27T01:39:07.090Z,86.10
2022-07-27T01:44:10.442Z,86.80
2022-07-27T01:49:13.593Z,86.80
2022-07-27T01:54:17.217Z,86.90
2022-07-27T01:59:20.029Z,87.00
2022-07-27T02:04:24.872Z,87.10
2022-07-27T02:09:27.748Z,87.40
2022-07-27T02:14:30.593Z,87.60
2022-07-27T02:19:34.037Z,88.00
2022-07-27T02:24:37.933Z,88.50
2022-07-27T02:29:40.792Z,88.70
2022-07-27T02:34:44.322Z,88.90
2022-07-27T02:39:47.397Z,89.40
2022-07-27T02:44:50.314Z,89.60
2022-07-27T02:49:53.173Z,89.80
2022-07-27T02:54:56.001Z,89.80
2022-07-27T02:59:58.822Z,90.00
2022-07-27T03:05:01.760Z,90.20
2022-07-27T03:10:05.676Z,90.30
2022-07-27T03:15:09.520Z,90.40
2022-07-27T03:20:12.582Z,90.50
2022-07-27T03:25:15.379Z,90.40
2022-07-27T03:30:18.376Z,90.40
2022-07-27T03:35:21.301Z,90.40
2022-07-27T03:40:24.915Z,90.50
2022-07-27T03:45:28.211Z,90.60
2022-07-27T03:50:31.093Z,90.70
2022-07-27T03:55:33.977Z,90.70
2022-07-27T04:00:36.769Z,90.80
2022-07-27T04:05:39.663Z,90.80
2022-07-27T04:10:42.614Z,90.80
2022-07-27T04:15:46.531Z,90.80
2022-07-27T04:20:49.330Z,90.90
2022-07-27T04:25:52.026Z,91.00
2022-07-27T04:30:54.938Z,91.00
2022-07-27T04:35:57.759Z,91.10
2022-07-27T04:41:00.837Z,91.10
2022-07-27T04:46:05.372Z,91.40
2022-07-27T04:51:08.290Z,91.30
2022-07-27T04:56:11.661Z,91.20
2022-07-27T05:01:14.727Z,90.90
2022-07-27T05:06:17.786Z,90.50
2022-07-27T05:11:20.715Z,90.50
2022-07-27T05:16:28.525Z,90.40
2022-07-27T05:21:31.711Z,90.30
2022-07-27T05:26:34.531Z,90.00
2022-07-27T05:31:37.356Z,88.60
2022-07-27T05:36:40.230Z,87.30
2022-07-27T05:41:43.578Z,85.50
2022-07-27T05:46:46.382Z,85.40
2022-07-27T05:51:49.994Z,85.10
2022-07-27T05:56:53.229Z,84.30
2022-07-27T06:01:55.983Z,81.70
2022-07-27T06:07:17.015Z,80.30
2022-07-27T06:12:20.514Z,79.50
2022-07-27T06:17:23.622Z,79.10
2022-07-27T06:22:26.429Z,78.60
2022-07-27T06:27:29.806Z,78.00
2022-07-27T06:32:33.145Z,77.20
2022-07-27T06:37:37.688Z,76.80
2022-07-27T06:42:42.029Z,76.00
2022-07-27T06:47:49.383Z,74.00
2022-07-27T06:52:52.890Z,70.70
2022-07-27T06:57:55.889Z,69.50
2022-07-27T07:03:02.945Z,66.60
2022-07-27T07:08:11.415Z,67.00
2022-07-27T07:13:14.506Z,65.90
2022-07-27T07:18:17.395Z,65.00
2022-07-27T07:23:20.277Z,63.40
2022-07-27T07:28:23.033Z,62.60
2022-07-27T07:33:27.137Z,62.60
2022-07-27T07:38:30.070Z,62.30
2022-07-27T07:43:35.627Z,61.30
2022-07-27T07:48:39.647Z,60.30
2022-07-27T07:53:42.722Z,60.20
2022-07-27T07:58:45.662Z,59.80
2022-07-27T08:03:51.076Z,60.10
2022-07-27T08:08:54.298Z,59.60
2022-07-27T08:13:57.074Z,58.60
2022-07-27T08:18:59.855Z,57.20
2022-07-27T08:24:04.009Z,56.10
2022-07-27T08:29:13.129Z,56.10
2022-07-27T08:34:16.556Z,55.60
2022-07-27T08:40:05.486Z,55.50
2022-07-27T08:44:42.663Z,54.80
2022-07-27T08:49:49.496Z,53.80
2022-07-27T08:54:52.933Z,52.90
2022-07-27T08:59:56.979Z,53.00
2022-07-27T09:04:59.929Z,51.50
2022-07-27T09:10:05.315Z,51.40
2022-07-27T09:15:12.480Z,50.90
2022-07-27T09:20:19.530Z,49.60
2022-07-27T09:26:00.819Z,49.40
2022-07-27T09:30:53.618Z,49.00
2022-07-27T09:36:00.248Z,47.90
2022-07-27T09:41:06.109Z,47.90
2022-07-27T09:46:09.821Z,47.50
2022-07-27T09:51:57.786Z,47.20
2022-07-27T09:56:36.035Z,46.10
2022-07-27T10:01:47.672Z,46.80
2022-07-27T10:07:02.905Z,46.70
2022-07-27T10:12:07.207Z,46.10
2022-07-27T10:17:13.053Z,45.80
2022-07-27T10:22:16.715Z,45.30
2022-07-27T10:27:28.251Z,44.80
2022-07-27T10:32:33.301Z,44.20
2022-07-27T10:37:36.208Z,43.70
2022-07-27T10:42:39.809Z,42.80
2022-07-27T10:47:45.516Z,42.90
2022-07-27T10:53:02.468Z,42.40
2022-07-27T10:58:28.789Z,41.60
2022-07-27T11:03:42.391Z,41.10
2022-07-27T11:09:08.543Z,41.10
2022-07-27T11:14:12.593Z,41.00
2022-07-27T11:19:18.261Z,40.70
2022-07-27T11:24:23.635Z,40.40
2022-07-27T11:29:26.962Z,39.80
2022-07-27T11:34:37.252Z,39.50
2022-07-27T11:45:03.082Z,38.80
2022-07-27T11:50:11.500Z,39.10
2022-07-27T11:55:14.499Z,38.80
2022-07-27T12:00:17.473Z,38.80
2022-07-27T12:05:20.380Z,38.80
2022-07-27T12:10:23.426Z,37.80
2022-07-27T12:15:45.243Z,37.90
2022-07-27T12:20:50.216Z,38.40
2022-07-27T12:25:53.246Z,37.70
2022-07-27T12:30:56.071Z,36.90
2022-07-27T12:36:01.079Z,37.30
2022-07-27T12:41:03.920Z,36.90
2022-07-27T12:46:14.390Z,36.50
2022-07-27T12:51:26.269Z,36.70
2022-07-27T12:56:29.240Z,36.70
2022-07-27T13:01:32.171Z,37.60
2022-07-27T13:06:35.103Z,37.90
2022-07-27T13:11:37.929Z,38.20
2022-07-27T13:16:40.812Z,38.50
2022-07-27T13:21:43.804Z,38.50
2022-07-27T13:26:49.283Z,38.50
2022-07-27T13:31:57.109Z,38.20
2022-07-27T13:37:00.736Z,37.90
2022-07-27T13:42:03.818Z,38.10
2022-07-27T13:47:07.698Z,38.10
2022-07-27T13:52:14.926Z,37.80
2022-07-27T13:57:18.338Z,37.30
2022-07-27T14:02:23.248Z,36.50
2022-07-27T14:07:28.807Z,36.60
2022-07-27T14:12:31.591Z,36.60
2022-07-27T14:17:34.550Z,37.80
2022-07-27T14:22:37.438Z,37.40
2022-07-27T14:27:40.529Z,37.50
2022-07-27T14:32:43.654Z,37.50
2022-07-27T14:37:46.886Z,37.50
2022-07-27T14:42:49.789Z,37.20
2022-07-27T14:47:52.851Z,37.10
2022-07-27T14:52:56.899Z,36.30
2022-07-27T14:57:59.729Z,36.40
2022-07-27T15:03:03.683Z,36.20
2022-07-27T15:08:06.884Z,36.00
2022-07-27T15:13:10.298Z,36.10
2022-07-27T15:18:13.078Z,35.90
2022-07-27T15:23:16.878Z,35.70
2022-07-27T15:28:20.019Z,35.40
2022-07-27T15:33:23.113Z,35.50
2022-07-27T15:38:25.991Z,35.60
2022-07-27T15:43:28.826Z,35.30
2022-07-27T15:48:32.139Z,34.90
2022-07-27T15:53:36.464Z,35.30
2022-07-27T15:58:39.270Z,36.30
2022-07-27T16:03:42.102Z,37.00
2022-07-27T16:08:46.413Z,37.60
2022-07-27T16:13:49.417Z,38.40
2022-07-27T16:18:53.935Z,39.20
2022-07-27T16:23:58.677Z,39.50
2022-07-27T16:29:02.611Z,39.50
2022-07-27T16:34:05.566Z,39.80
2022-07-27T16:39:08.442Z,40.20
2022-07-27T16:44:12.129Z,41.00
2022-07-27T16:49:16.326Z,41.70
2022-07-27T16:54:19.561Z,42.30
2022-07-27T16:59:22.468Z,42.80
2022-07-27T17:04:25.408Z,43.20
2022-07-27T17:09:28.365Z,43.60
2022-07-27T17:14:31.431Z,44.80
2022-07-27T17:19:35.217Z,45.50
2022-07-27T17:24:38.469Z,46.10
2022-07-27T17:29:41.402Z,46.50
2022-07-27T17:34:45.595Z,46.60
2022-07-27T17:39:48.573Z,46.80
2022-07-27T17:44:52.444Z,47.00
2022-07-27T17:49:59.094Z,47.40
2022-07-27T17:55:02.708Z,48.00
2022-07-27T18:00:06.747Z,48.30
2022-07-27T18:05:13.189Z,48.70
2022-07-27T18:10:16.981Z,49.00
2022-07-27T18:15:38.808Z,49.30
2022-07-27T18:20:42.821Z,49.20
2022-07-27T18:25:46.923Z,49.10
2022-07-27T18:30:52.875Z,49.10
2022-07-27T18:35:56.418Z,49.20
2022-07-27T18:41:00.765Z,49.20
2022-07-27T18:46:04.504Z,49.00
2022-07-27T18:51:07.315Z,48.80
2022-07-27T18:56:10.947Z,48.90
2022-07-27T19:01:13.836Z,49.00
2022-07-27T19:06:18.191Z,49.60
2022-07-27T19:11:21.726Z,50.70
2022-07-27T19:16:25.523Z,52.20
2022-07-27T19:21:28.773Z,54.90
2022-07-27T19:26:31.837Z,58.00
2022-07-27T19:31:36.663Z,58.60
2022-07-27T19:36:39.592Z,59.20
2022-07-27T19:41:42.725Z,59.70
2022-07-27T19:46:46.666Z,60.10
2022-07-27T19:51:50.268Z,59.60
2022-07-27T19:56:53.753Z,59.80
2022-07-27T20:01:56.986Z,59.80
2022-07-27T20:06:59.930Z,59.20
2022-07-27T20:12:04.010Z,58.50
2022-07-27T20:17:07.096Z,58.10
2022-07-27T20:22:10.042Z,57.70
2022-07-27T20:27:13.911Z,57.50
2022-07-27T20:32:17.232Z,58.40
2022-07-27T20:37:22.845Z,58.70
2022-07-27T20:42:25.831Z,58.10
2022-07-27T20:47:34.315Z,56.80
2022-07-27T20:52:39.802Z,56.30
2022-07-27T20:57:42.743Z,55.90
2022-07-27T21:02:45.702Z,56.30
2022-07-27T21:07:48.671Z,56.50
2022-07-27T21:12:51.816Z,56.80
2022-07-27T21:17:54.694Z,57.00
2022-07-27T21:23:16.218Z,56.90
2022-07-27T21:28:23.097Z,57.00
2022-07-27T21:33:28.448Z,57.10
2022-07-27T21:38:31.346Z,57.20
2022-07-27T21:43:35.052Z,57.50
2022-07-27T21:48:37.984Z,57.50
2022-07-27T21:53:40.902Z,57.30
2022-07-27T21:58:45.997Z,57.10
2022-07-27T22:03:48.972Z,57.10
2022-07-27T22:08:52.059Z,57.00
2022-07-27T22:13:54.905Z,56.70
2022-07-27T22:18:57.820Z,57.00
2022-07-27T22:24:01.348Z,56.90
2022-07-27T22:29:04.233Z,56.70
2022-07-27T22:34:07.137Z,56.70
2022-07-27T22:39:09.974Z,57.00
2022-07-27T22:44:13.273Z,57.00
2022-07-27T22:49:18.829Z,56.90
2022-07-27T22:54:21.982Z,56.70
2022-07-27T22:59:26.593Z,56.30
2022-07-27T23:04:29.819Z,56.40
2022-07-27T23:09:32.589Z,56.50
2022-07-27T23:14:35.320Z,56.50
2022-07-27T23:19:38.108Z,56.60
2022-07-27T23:24:41.107Z,56.80
2022-07-27T23:29:45.094Z,56.90
2022-07-27T23:34:48.198Z,57.00
2022-07-27T23:39:51.352Z,56.90
2022-07-27T23:44:54.232Z,57.10
2022-07-27T23:49:57.150Z,57.30
2022-07-27T23:55:00.752Z,57.30
